WetterOnline ( https://www.wetteronline.de )

Wetter aktuell St. Peter-Ording

Aktuelles Wetter: St. Peter-Ording (11m)

6-stündlich | Neueste Meldungen
Ortszeit Temperatur Wetter
Mi, 24.04. 20:00 19.6° C wolkenlos
Mi, 24.04. 14:00 19.2° C bewölkt
Mi, 24.04. 8:00 12.0° C wolkig
Mi, 24.04. 2:00 11.2° C wolkenlos
Di, 23.04. 20:00 14.2° C wolkenlos
Di, 23.04. 14:00 17.6° C wolkenlos
Di, 23.04. 8:00 11.2° C wolkenlos
Di, 23.04. 2:00 8.6° C wolkenlos
Ortszeit Temperatur Wetter
Mi, 24.04. 21:30 15.5° C bedeckt
Mi, 24.04. 21:20 15.5° C bedeckt
Mi, 24.04. 21:10 15.9° C bedeckt
Mi, 24.04. 21:00 17.2° C bewölkt
Mi, 24.04. 20:50 17.2° C bewölkt
Mi, 24.04. 20:40 18.0° C wolkig
Mi, 24.04. 20:30 18.6° C wolkig
Mi, 24.04. 20:00 19.6° C wolkenlos
Mi, 24.04. 19:30 20.6° C wolkenlos
Mi, 24.04. 19:00 21.5° C leicht bewölkt
Mi, 24.04. 18:30 21.7° C leicht bewölkt
Ortszeit Relative Feuchte Sichtweite
Mi, 24.04. 20:00 62% 30 km
Mi, 24.04. 14:00 58% 30 km
Mi, 24.04. 8:00 77% 30 km
Mi, 24.04. 2:00 81% 26 km
Di, 23.04. 20:00 54% 27 km
Di, 23.04. 14:00 40% 40 km
Di, 23.04. 8:00 66% 35 km
Di, 23.04. 2:00 76% 40 km
Ortszeit Relative Feuchte Sichtweite
Mi, 24.04. 21:30 76% 20 km
Mi, 24.04. 21:20 76% -
Mi, 24.04. 21:10 74% -
Mi, 24.04. 21:00 71% 27 km
Mi, 24.04. 20:50 71% -
Mi, 24.04. 20:40 66% -
Mi, 24.04. 20:30 65% 29 km
Mi, 24.04. 20:00 62% 30 km
Mi, 24.04. 19:30 58% 45 km
Mi, 24.04. 19:00 56% 35 km
Mi, 24.04. 18:30 53% 35 km
Ortszeit Niederschlagsmenge Niederschlagsart
Mi, 24.04. 20:00 0.1 l/m2 in 12 Std. Regen
Mi, 24.04. 14:00 0.1 l/m2 in 6 Std. Regen
Mi, 24.04. 8:00 0.1 l/m2 in 12 Std. Regen
Mi, 24.04. 2:00 0.0 l/m2 in 6 Std. -
Di, 23.04. 20:00 0.0 l/m2 in 12 Std. -
Di, 23.04. 14:00 0.0 l/m2 in 6 Std. -
Di, 23.04. 8:00 0.0 l/m2 in 12 Std. -
Di, 23.04. 2:00 0.0 l/m2 in 6 Std. -
Ortszeit Niederschlagsmenge Niederschlagsart
Mi, 24.04. 21:30 0.0 l/m2 in 1 Std. -
Mi, 24.04. 21:20 keine Meldung -
Mi, 24.04. 21:10 keine Meldung -
Mi, 24.04. 21:00 0.0 l/m2 in 1 Std. -
Mi, 24.04. 20:50 keine Meldung -
Mi, 24.04. 20:40 keine Meldung -
Mi, 24.04. 20:30 0.0 l/m2 in 1 Std. -
Mi, 24.04. 20:00 0.0 l/m2 in 1 Std. Regen
Mi, 24.04. 19:30 0.0 l/m2 in 1 Std. -
Mi, 24.04. 19:00 0.0 l/m2 in 1 Std. -
Mi, 24.04. 18:30 0.0 l/m2 in 1 Std. -
Ortszeit Stärke Spitze Richtung
km/h Bft. km/h Grad Sektor
Mi, 24.04. 20:00 22 4 43 90° O
Mi, 24.04. 14:00 30 5 48 120° SO
Mi, 24.04. 8:00 28 4 46 110° O
Mi, 24.04. 2:00 25 4 47 90° O
Di, 23.04. 20:00 32 5 72 80° O
Di, 23.04. 14:00 40 6 61 90° O
Di, 23.04. 8:00 26 4 39 90° O
Di, 23.04. 2:00 18 3 43 90° O
Ortszeit Stärke Spitze Richtung
km/h Bft. km/h Grad Sektor
Mi, 24.04. 21:30 22 4 33 90° O
Mi, 24.04. 21:20 22 4 - 90° O
Mi, 24.04. 21:10 22 4 - 90° O
Mi, 24.04. 21:00 22 4 32 90° O
Mi, 24.04. 20:50 22 4 - 90° O
Mi, 24.04. 20:40 22 4 - 90° O
Mi, 24.04. 20:30 22 4 32 90° O
Mi, 24.04. 20:00 22 4 32 90° O
Mi, 24.04. 19:30 18 3 32 100° O
Mi, 24.04. 19:00 18 3 32 100° O
Mi, 24.04. 18:30 18 3 32 120° SO
Ortszeit Untergrenze Bedeckung Gattung
total tief tief mittel hoch
Mi, 24.04. 20:00 - 0/8 0/8 - - -
Mi, 24.04. 14:00 2700 m 8/8 7/8 - - -
Mi, 24.04. 8:00 2100 m 8/8 2/8 - - -
Mi, 24.04. 2:00 - 0/8 0/8 - - -
Di, 23.04. 20:00 - 0/8 0/8 - - -
Di, 23.04. 14:00 - 0/8 0/8 - - -
Di, 23.04. 8:00 - 0/8 0/8 - - -
Di, 23.04. 2:00 - 0/8 0/8 - - -
Ortszeit Bedeckungsgrad in Achtel und Wolkenuntergrenze
Mi, 24.04. 21:30 8(3900m) 8(7500m) 8(8100m)
Mi, 24.04. 21:20 8(3900m) 8(7500m) 8(8100m)
Mi, 24.04. 21:10 8(3900m) 8(7200m) 8(7800m)
Mi, 24.04. 21:00 6(3900m) 7(4500m)
Mi, 24.04. 20:50 6(3900m) 7(4500m)
Mi, 24.04. 20:40 5(4200m)
Mi, 24.04. 20:30 5(4200m)
Mi, 24.04. 20:00 keine Wolken
Mi, 24.04. 19:30 keine Wolken
Mi, 24.04. 19:00 2(8100m) 3(8700m)
Mi, 24.04. 18:30 2(8400m) 3(9000m)
Ortszeit Luftdruck NN (hPa) Tendenz (hPa in 3 Std.)
Mi, 24.04. 20:00 1003 - 0,5
Mi, 24.04. 14:00 1003 + 0,5
Mi, 24.04. 8:00 1002 0,0
Mi, 24.04. 2:00 1003 - 1,3
Di, 23.04. 20:00 1004 - 1,1
Di, 23.04. 14:00 1008 - 2,0
Di, 23.04. 8:00 1011 - 0,5
Di, 23.04. 2:00 1013 - 0,5
Ortszeit Luftdruck NN (hPa) Tendenz (hPa in 3 Std.)
Mi, 24.04. 21:30 1003 + 0,4
Mi, 24.04. 21:20 1003 keine Meldung
Mi, 24.04. 21:10 1003 keine Meldung
Mi, 24.04. 21:00 1003 0,0
Mi, 24.04. 20:50 1003 keine Meldung
Mi, 24.04. 20:40 1003 keine Meldung
Mi, 24.04. 20:30 1003 - 0,2
Mi, 24.04. 20:00 1003 - 0,5
Mi, 24.04. 19:30 1002 - 0,8
Mi, 24.04. 19:00 1003 - 0,8
Mi, 24.04. 18:30 1003 - 0,9
Ortszeit Schneehöhe (cm)
Mi, 24.04. 20:00 0
Mi, 24.04. 14:00 0
Mi, 24.04. 8:00 0
Mi, 24.04. 2:00 0
Di, 23.04. 20:00 0
Di, 23.04. 14:00 0
Di, 23.04. 8:00 0
Di, 23.04. 2:00 0
Ortszeit Schneehöhe (cm)
Mi, 24.04. 21:30 0
Mi, 24.04. 21:20 0
Mi, 24.04. 21:10 0
Mi, 24.04. 21:00 0
Mi, 24.04. 20:50 0
Mi, 24.04. 20:40 0
Mi, 24.04. 20:30 0
Mi, 24.04. 20:00 0
Mi, 24.04. 19:30 0
Mi, 24.04. 19:00 0
Mi, 24.04. 18:30 0
Link zu dieser Seite / Seite empfehlen

Das Wetter in ...